Terminal Aerodrome Forecast
Issued by NWS Pendleton, OR

Home | Current Version | Previous Version | Text Only | Print | Product List | Glossary On
Versions: 1 2 3 4 5 6 7 8 9 10 11 12 13 14 15 16 17 18 19 20 21
829
FTUS46 KPDT 261724
TAFPDT
TAF
KPDT 261724Z 2618/2718 VRB06KT P6SM -SHRA SCT050 OVC070
      TEMPO 2623/2703 5SM SHRA BR BKN025
     FM270600 23007KT P6SM VCSH SCT050 BKN080
     FM271200 24010KT P6SM SCT050 BKN070=

USA.gov is the U.S. government's official web portal to all federal, state and local government web resources and services.